METAR Data
IDs: Format: Raw Decoded Include TAF

Data at: 0750 UTC 07 Dec 2022

KGCD 070735Z AUTO 11003KT 10SM CLR M05/M08 A3013 RMK AO2 T10511077
KGCD 070715Z AUTO 09004KT 10SM CLR M05/M07 A3012 RMK AO2 T10461073
KGCD 070655Z AUTO 09005G08KT 10SM CLR M04/M07 A3012 RMK AO2 T10421070
KGCD 070635Z AUTO 09008KT 10SM CLR M04/M07 A3012 RMK AO2 T10441067
KGCD 070615Z AUTO 11007KT 070V140 10SM CLR M04/M07 A3012 RMK AO2 T10411066
KGCD 070555Z AUTO 10004KT 10SM CLR M04/M06 A3012 RMK AO2 T10411064 10015 21047
KGCD 070535Z AUTO 10005KT 10SM CLR M05/M06 A3012 RMK AO2 T10461065
KGCD 070515Z AUTO 10003KT 10SM CLR M04/M06 A3012 RMK AO2 T10391062
KGCD 070455Z AUTO 11005KT 10SM CLR M04/M06 A3011 RMK AO2 T10391061
KGCD 070435Z AUTO 09005KT 10SM CLR M04/M06 A3011 RMK AO2 T10411062
KGCD 070415Z AUTO 10003KT 10SM CLR M04/M06 A3010 RMK AO2 T10381061
KGCD 070355Z AUTO 00000KT 10SM CLR M04/M06 A3010 RMK AO2 T10361061
KGCD 070335Z AUTO 09004KT 10SM CLR M03/M06 A3010 RMK AO2 T10291057
KGCD 070315Z AUTO 10003KT 10SM CLR M03/M06 A3009 RMK AO2 T10301057
KGCD 070255Z AUTO 10005KT 10SM CLR M03/M06 A3009 RMK AO2 T10321057
KGCD 070235Z AUTO 12006KT 10SM CLR M02/M05 A3008 RMK AO2 T10251050
KGCD 070215Z AUTO 11007KT 10SM CLR M02/M05 A3008 RMK AO2 T10231048
KGCD 070155Z AUTO 10004KT 10SM CLR M02/M05 A3007 RMK AO2 T10181048
KGCD 070135Z AUTO 07003KT 10SM CLR M01/M05 A3007 RMK AO2 T10151047
KGCD 070115Z AUTO 08005KT 10SM CLR M01/M05 A3007 RMK AO2 T10141048
KGCD 070055Z AUTO 06005KT 10SM CLR 00/M04 A3006 RMK AO2 T10051045
KGCD 070035Z AUTO 07003KT 10SM CLR 00/M04 A3006 RMK AO2 T10021042
KGCD 070015Z AUTO 10004KT 10SM CLR 00/M04 A3005 RMK AO2 T10011041
KGCD 062355Z AUTO 12006KT 10SM CLR 02/M04 A3005 RMK AO2 T00191042 10031 21025
KGCD 062335Z AUTO 19007KT 10SM CLR 03/M04 A3004 RMK AO2 T00251040
KGCD 062315Z AUTO 19010KT 10SM CLR 03/M04 A3004 RMK AO2 T00281036
KGCD 062255Z AUTO 19009KT 10SM CLR 03/M03 A3004 RMK AO2 T00301034
KGCD 062235Z AUTO 00000KT 10SM CLR 03/M03 A3004 RMK AO2 T00261026
KGCD 062215Z AUTO 00000KT 10SM CLR 03/M03 A3004 RMK AO2 T00261027
KGCD 062155Z AUTO 00000KT 10SM SCT031 02/M02 A3005 RMK AO2 T00181025
KGCD 062135Z AUTO 00000KT 10SM CLR 01/M02 A3005 RMK AO2 T00131023
KGCD 062115Z AUTO 00000KT 10SM CLR 02/M02 A3005 RMK AO2 T00181021
KGCD 062055Z AUTO 00000KT 10SM SCT029 02/M03 A3005 RMK AO2 T00161026
KGCD 062035Z AUTO 00000KT 10SM SCT029 02/M02 A3005 RMK AO2 T00171024
KGCD 062015Z AUTO 00000KT 10SM SCT029 02/M02 A3005 RMK AO2 T00211022
KGCD 061955Z AUTO 19009KT 10SM CLR 02/M03 A3004 RMK AO2 T00241029
KGCD 061935Z AUTO 17008KT 10SM CLR 02/M03 A3005 RMK AO2 T00171029
KGCD 061915Z AUTO 18010G15KT 10SM CLR 01/M03 A3005 RMK AO2 T00131027
KGCD 061855Z AUTO 00000KT 10SM CLR 00/M02 A3005 RMK AO2 T10011017
KGCD 061835Z AUTO 00000KT 7SM CLR M01/M02 A3005 RMK AO2 T10091018
KGCD 061815Z AUTO 00000KT 10SM CLR M01/M02 A3005 RMK AO2 T10091020
KGCD 061755Z AUTO 00000KT 1 3/4SM BR SCT001 M03/M03 A3005 RMK AO2 VIS 1/2V5 T10271032 11020 21050
KGCD 061735Z AUTO 00000KT 1/4SM FZFG OVC001 M03/M04 A3005 RMK AO2 T10331036
KGCD 061715Z AUTO 00000KT M1/4SM FZFG OVC001 M04/M04 A3005 RMK AO2 T10401043
KGCD 061655Z AUTO 00000KT M1/4SM FZFG OVC001 M04/M04 A3004 RMK AO2 T10371040
KGCD 061635Z AUTO 00000KT M1/4SM FZFG OVC001 M04/M04 A3003 RMK AO2 T10401042
KGCD 061615Z AUTO 00000KT M1/4SM FZFG OVC001 M04/M05 A3003 RMK AO2 T10431046
KGCD 061555Z AUTO 00000KT M1/4SM FZFG OVC001 M05/M05 A3003 RMK AO2 T10501053
KGCD 061535Z AUTO 00000KT 10SM CLR M04/M05 A3003 RMK AO2 T10451050
KGCD 061515Z AUTO 11003KT 10SM CLR M04/M04 A3002 RMK AO2 T10361042
KGCD 061455Z AUTO 10005KT 10SM CLR M03/M04 A3001 RMK AO2 T10331038
KGCD 061435Z AUTO 10005KT 10SM CLR M03/M04 A3001 RMK AO2 T10311038
KGCD 061415Z AUTO 10004KT 10SM CLR M03/M03 A3000 RMK AO2 T10271034
KGCD 061355Z AUTO 00000KT 10SM CLR M03/M04 A3000 RMK AO2 T10321037
KGCD 061335Z AUTO 11004KT 10SM SCT044 M03/M03 A3000 RMK AO2 T10271033
KGCD 061315Z AUTO 00000KT 10SM BKN044 M03/M03 A3000 RMK AO2 T10261030
KGCD 061255Z AUTO 00000KT 10SM BKN044 M02/M03 A2999 RMK AO2 T10211026
KGCD 061235Z AUTO 09004KT 10SM BKN044 M02/M03 A2998 RMK AO2 T10221027
KGCD 061215Z AUTO 09004KT 10SM BKN042 M02/M03 A2998 RMK AO2 T10211026
KGCD 061155Z AUTO 08004KT 7SM OVC044 M02/M02 A2998 RMK AO2 T10201024 11010 21020
KGCD 061135Z AUTO 00000KT 5SM BR OVC044 M02/M02 A2999 RMK AO2 T10181022
KGCD 061115Z AUTO 00000KT 5SM BR OVC044 M02/M02 A2999 RMK AO2 T10161020
KGCD 061055Z AUTO 00000KT 1 1/2SM BR OVC044 M01/M02 A2999 RMK AO2 T10151017
KGCD 061035Z AUTO 00000KT 4SM BR OVC044 M01/M02 A3000 RMK AO2 T10141018
KGCD 061015Z AUTO 00000KT 5SM BR OVC044 M01/M02 A2999 RMK AO2 T10131017
KGCD 060955Z AUTO 00000KT 10SM OVC042 M01/M01 A2998 RMK AO2 T10111015
KGCD 060935Z AUTO 00000KT 7SM OVC042 M01/M01 A2998 RMK AO2 T10111015
KGCD 060915Z AUTO 00000KT 5SM BR OVC044 M01/M01 A2998 RMK AO2 T10121015
KGCD 060855Z AUTO 00000KT 5SM BR SCT041 OVC047 M01/M02 A2997 RMK AO2 T10141016
KGCD 060835Z AUTO 00000KT 5SM BR OVC049 M01/M02 A2997 RMK AO2 T10131016
KGCD 060815Z AUTO 00000KT 5SM BR OVC049 M01/M02 A2997 RMK AO2 T10131016
KGCD 060755Z AUTO 00000KT 7SM OVC049 M01/M02 A2997 RMK AO2 T10121016 400201035
KGCD 060735Z AUTO 00000KT 7SM OVC049 M01/M02 A2997 RMK AO2 T10151019
KGCD 060715Z AUTO 00000KT 10SM OVC049 M01/M02 A2997 RMK AO2 T10111020
KGCD 060655Z AUTO 00000KT 10SM OVC049 M01/M02 A2997 RMK AO2 T10121020
KGCD 060635Z AUTO 00000KT 10SM SCT033 OVC049 M01/M02 A2997 RMK AO2 T10131021
KGCD 060615Z AUTO 00000KT 10SM SCT033 OVC049 M01/M02 A2997 RMK AO2 T10131022
KGCD 060555Z AUTO 00000KT 10SM OVC049 M01/M02 A2997 RMK AO2 T10101025 10000 21020
KGCD 060535Z AUTO 00000KT 10SM OVC049 M01/M02 A2996 RMK AO2 T10091025
KGCD 060515Z AUTO 00000KT 10SM BKN049 M01/M02 A2995 RMK AO2 T10061024
KGCD 060455Z AUTO 00000KT 10SM SCT045 M02/M03 A2994 RMK AO2 T10181031
KGCD 060435Z AUTO 00000KT 10SM BKN045 M01/M03 A2994 RMK AO2 T10131030
KGCD 060415Z AUTO 00000KT 10SM OVC045 00/M02 A2993 RMK AO2 T00001018
KGCD 060355Z AUTO 00000KT 10SM SCT038 OVC045 00/M02 A2993 RMK AO2 T10011023
KGCD 060335Z AUTO 00000KT 10SM SCT032 SCT040 OVC045 00/M02 A2992 RMK AO2 T10011017
KGCD 060315Z AUTO 00000KT 10SM SCT032 OVC047 00/M02 A2992 RMK AO2 T10041020
KGCD 060255Z AUTO 00000KT 10SM OVC049 M01/M02 A2992 RMK AO2 T10061020
KGCD 060235Z AUTO 00000KT 10SM OVC047 M01/M02 A2992 RMK AO2 T10081020
KGCD 060215Z AUTO 00000KT 10SM OVC047 00/M02 A2992 RMK AO2 T10051022
KGCD 060155Z AUTO 00000KT 10SM OVC049 00/M02 A2991 RMK AO2 T10031023
KGCD 060135Z AUTO 00000KT 10SM OVC049 00/M02 A2992 RMK AO2 T10051019
KGCD 060115Z AUTO 00000KT 10SM OVC047 00/M02 A2992 RMK AO2 T10051023
KGCD 060055Z AUTO 00000KT 10SM OVC045 00/M01 A2992 RMK AO2 T10041015
KGCD 060035Z AUTO 00000KT 10SM OVC043 00/M02 A2991 RMK AO2 T10021016
KGCD 060015Z AUTO 00000KT 10SM OVC043 00/M02 A2991 RMK AO2 T10011025
KGCD 052355Z AUTO 00000KT 10SM OVC041 00/M02 A2991 RMK AO2 T00001023 10020 21019
KGCD 052335Z AUTO 00000KT 10SM OVC039 00/M02 A2991 RMK AO2 T00001020
KGCD 052315Z AUTO 00000KT 10SM OVC039 00/M02 A2990 RMK AO2 T00021018
KGCD 052255Z AUTO 00000KT 10SM BKN039 00/M02 A2990 RMK AO2 T00041017
KGCD 052235Z AUTO 00000KT 10SM SCT039 00/M02 A2990 RMK AO2 T00011018
KGCD 052215Z AUTO 00000KT 10SM CLR 02/M01 A2990 RMK AO2 T00151014
KGCD 052155Z AUTO 00000KT 10SM CLR 01/M01 A2990 RMK AO2 T00111015
KGCD 052135Z AUTO 00000KT 10SM CLR 02/M02 A2990 RMK AO2 T00191016
KGCD 052115Z AUTO 00000KT 10SM CLR 02/M02 A2991 RMK AO2 T00151016
KGCD 052055Z AUTO 00000KT 10SM CLR 00/M02 A2991 RMK AO2 T00041025
KGCD 052035Z AUTO 00000KT 10SM CLR 01/M02 A2991 RMK AO2 T00111016
KGCD 052015Z AUTO 07003KT 10SM CLR 02/M02 A2991 RMK AO2 T00151017
KGCD 051955Z AUTO 08006KT 10SM SCT044 SCT049 01/M01 A2992 RMK AO2 T00101012